Buoy 41997

sailwx.info

Track history (hours):
 
Tides and Currents Weather Stations Pressure Air Temp Water Temp Dewpoint Dewpoint Depression Visibility Wind Speed Wind Dir Waves Ship Positions

Drifting buoy 41997

Last reported at 2014-Aug-28 06:00 UTC. Time now 2014-Aug-28 07:26 UTC.
Position N 29°60' W 032°15'.

Water temperature 27.2 ° C

Date/timePositionNaut miles runAvg speedWind from/ knotsBaromVisibWave heightAir tempDewpointWater temp
2014-Aug-28 06:00N 29°60' W 032°15'1 0.7 27.2
2014-Aug-28 05:15N 29°59' W 032°15'0 0.1 27.2
2014-Aug-28 03:45N 29°60' W 032°15'2 8.6 27.2
2014-Aug-28 03:30N 29°58' W 032°14'0 0.0 27.2
2014-Aug-27 23:45N 29°58' W 032°14'1 1.9 27.3
2014-Aug-27 23:00N 29°58' W 032°12'1 1.5 27.3
2014-Aug-27 22:15N 29°59' W 032°12'0 0.0 27.3
2014-Aug-27 22:00N 29°59' W 032°12'1 0.5 27.4
2014-Aug-27 20:15N 29°60' W 032°12'0 0.0 27.6
2014-Aug-27 19:15N 29°60' W 032°12'0 0.0 27.8
2014-Aug-27 18:30N 29°60' W 032°12'0 0.1 27.7
2014-Aug-27 17:30N 29°60' W 032°12'1 1.0 27.6
2014-Aug-27 17:00N 30°00' W 032°12'0 0.0 27.6
2014-Aug-27 16:45N 30°00' W 032°12'1 0.6 27.6
2014-Aug-27 15:15N 29°60' W 032°12'0 0.0 27.3
2014-Aug-27 15:00N 29°60' W 032°12'1 0.5 27.3
2014-Aug-27 12:30N 29°59' W 032°13'1 0.7 26.9
2014-Aug-27 11:45N 29°58' W 032°13'1 1.1 26.8
2014-Aug-27 11:00N 29°58' W 032°12'0 0.0 26.7
2014-Aug-27 10:45N 29°58' W 032°12'0 0.0 26.7
2014-Aug-27 08:00N 29°58' W 032°12'0 0.9 26.5
2014-Aug-27 07:45N 29°58' W 032°12'0 0.0 26.5
2014-Aug-27 07:15N 29°58' W 032°12'0 0.5 26.5
2014-Aug-27 06:15N 29°58' W 032°11'0 1.9 26.5
2014-Aug-27 06:00N 29°58' W 032°11'0 0.1 26.5
2014-Aug-27 05:30N 29°58' W 032°11'0 0.0 26.6
2014-Aug-27 04:00N 29°58' W 032°11'0 1.1 26.6
2014-Aug-27 03:45N 29°58' W 032°11'2 0.5 26.6
2014-Aug-27 00:15N 29°57' W 032°09'0 0.0 26.7
2014-Aug-27 00:00N 29°57' W 032°09'1 1.4 26.7
2014-Aug-26 23:30N 29°57' W 032°08'0 0.6 26.7
2014-Aug-26 23:15N 29°57' W 032°08'1 1.8 26.7
2014-Aug-26 22:30N 29°58' W 032°07'1 0.9 26.7
2014-Aug-26 20:45N 29°59' W 032°05'0 0.0 26.8
2014-Aug-26 19:15N 29°59' W 032°05'1 3.2 27.1
2014-Aug-26 19:00N 29°59' W 032°06'0 0.0 27.1
2014-Aug-26 18:45N 29°59' W 032°06'0 0.0 27.1
2014-Aug-26 17:45N 29°59' W 032°06'0 0.0 27.2
2014-Aug-26 17:30N 29°59' W 032°06'1 0.3 27.2
2014-Aug-26 15:30N 29°60' W 032°06'0 0.0 27.0
2014-Aug-26 15:15N 29°60' W 032°06'0 0.1 27.0
2014-Aug-26 12:45N 29°60' W 032°06'0 0.0 26.5
2014-Aug-26 12:15N 29°60' W 032°06'0 1.1 26.5
2014-Aug-26 12:00N 29°60' W 032°05'1 1.1 26.4
2014-Aug-26 11:15N 29°59' W 032°05'0 0.0 26.4
2014-Aug-26 11:00N 29°59' W 032°05'0 0.0 26.4
2014-Aug-26 08:30N 29°59' W 032°05'1 0.7 26.4
2014-Aug-26 07:45N 29°60' W 032°04'0 1.4 26.4
2014-Aug-26 07:30N 30°00' W 032°04'0 0.0 26.4
2014-Aug-26 07:00N 30°00' W 032°04'0 0.0 26.4
2014-Aug-26 06:45N 30°00' W 032°04'0 1.8 26.4
2014-Aug-26 06:30N 30°00' W 032°04'1 3.3 26.4
2014-Aug-26 06:15N 30°01' W 032°03'0 0.0 26.4
2014-Aug-26 05:45N 30°01' W 032°03'0 0.0 26.4
2014-Aug-26 05:30N 30°01' W 032°03'0 0.2 26.4
2014-Aug-26 04:00N 30°01' W 032°02'0 0.0 26.5
2014-Aug-26 00:30N 30°01' W 032°02'0 0.3 26.6
2014-Aug-25 23:45N 30°01' W 032°02'0 0.0 26.6
2014-Aug-25 23:00N 30°01' W 032°02'1 5.2 26.7
2014-Aug-25 22:45N 30°01' W 032°01'0 0.0 26.7
2014-Aug-25 22:00N 30°01' W 032°01'1 0.3 26.7
2014-Aug-25 19:45N 30°01' W 031°60'0 0.0 26.9
2014-Aug-25 19:30N 30°01' W 031°60'0 0.0 26.9
2014-Aug-25 19:15N 30°01' W 031°60'0 0.0 26.9
2014-Aug-25 18:00N 30°01' W 031°60'0 0.2 26.9
2014-Aug-25 17:45N 30°01' W 031°60'0 0.0 26.9
2014-Aug-25 17:30N 30°01' W 031°60'0 1.4 26.9
2014-Aug-25 17:15N 30°02' W 031°60'0 0.0 26.9
2014-Aug-25 16:15N 30°02' W 031°60'0 0.0 26.9
2014-Aug-25 15:30N 30°02' W 031°60'1 0.4 26.8
2014-Aug-25 12:30N 30°01' W 031°58'2 1.7 26.4
2014-Aug-25 11:30N 29°59' W 031°58'0 0.0 26.4
2014-Aug-25 09:00N 29°59' W 031°58'1 1.2 26.4
2014-Aug-25 08:15N 30°00' W 031°57'0 0.0 26.3
2014-Aug-25 08:00N 30°00' W 031°57'0 0.0 26.4
2014-Aug-25 07:30N 30°00' W 031°57'0 0.0 26.4
2014-Aug-25 07:15N 30°00' W 031°57'1 2.0 26.4
2014-Aug-25 06:30N 30°01' W 031°56'0 0.0 26.4
2014-Aug-25 06:15N 30°01' W 031°56'0 0.3 26.4
2014-Aug-25 06:00N 30°01' W 031°56'0 0.0 26.4
2014-Aug-25 05:45N 30°01' W 031°56'1 0.9 26.4
2014-Aug-25 04:15N 30°01' W 031°54'0 0.0 26.4
2014-Aug-25 04:00N 30°01' W 031°54'0 0.0 26.4
2014-Aug-25 00:45N 30°01' W 031°54'0 0.0 26.5
2014-Aug-25 00:00N 30°01' W 031°54'0 0.0 26.5
2014-Aug-24 23:15N 30°01' W 031°54'0 0.0 26.5
2014-Aug-24 23:00N 30°01' W 031°54'0 0.0 26.5
2014-Aug-24 22:30N 30°01' W 031°54'0 0.0 26.5
2014-Aug-24 21:45N 30°01' W 031°54'0 1.2 26.5
2014-Aug-24 21:30N 30°01' W 031°54'0 0.0 26.5
2014-Aug-24 20:00N 30°01' W 031°54'0 0.0 26.6
2014-Aug-24 19:45N 30°01' W 031°54'0 0.0 26.6
2014-Aug-24 18:15N 30°01' W 031°54'0 0.5 26.7
2014-Aug-24 18:00N 30°01' W 031°54'0 0.3 26.7
2014-Aug-24 16:30N 30°02' W 031°53'0 0.0 26.8
2014-Aug-24 16:15N 30°02' W 031°53'0 0.0 26.8
2014-Aug-24 15:45N 30°02' W 031°53'0 0.0 26.7
2014-Aug-24 15:30N 30°02' W 031°53'0 0.1 26.7
2014-Aug-24 12:45N 30°01' W 031°53'1 1.5 26.6
2014-Aug-24 12:00N 30°00' W 031°53'0 0.0 26.5
2014-Aug-24 11:45N 30°00' W 031°53'0 0.0 26.5
2014-Aug-24 11:00N 30°00' W 031°53'1 0.8 26.5
2014-Aug-24 10:15N 30°00' W 031°52'0 0.2 26.5
2014-Aug-24 08:15N 30°00' W 031°52'0 1.5 26.5
2014-Aug-24 08:00N 30°00' W 031°52'0 0.0 26.5
2014-Aug-24 07:45N 30°00' W 031°52'1 1.1 26.5
2014-Aug-24 06:45N 30°01' W 031°51'0 0.0 26.5
2014-Aug-24 06:30N 30°01' W 031°51'0 0.0 26.5
2014-Aug-24 05:00N 30°01' W 031°51'0 0.2 26.5
2014-Aug-24 04:30N 30°01' W 031°51'1 3.9 26.5
2014-Aug-24 04:15N 30°01' W 031°50'0 0.0 26.5
2014-Aug-24 02:45N 30°01' W 031°50'0 0.0 26.5
2014-Aug-24 02:30N 30°01' W 031°50'0 0.1 26.5
2014-Aug-23 22:45N 30°01' W 031°50'0 0.0 26.6
2014-Aug-23 22:00N 30°01' W 031°50'0 0.5 26.7
2014-Aug-23 21:45N 30°01' W 031°49'0 0.0 26.7
2014-Aug-23 20:45N 30°01' W 031°49'0 0.0 26.8
2014-Aug-23 20:30N 30°01' W 031°49'0 0.0 26.8
2014-Aug-23 20:15N 30°01' W 031°49'0 0.0 26.8
2014-Aug-23 19:00N 30°01' W 031°49'1 1.1 26.8
2014-Aug-23 18:15N 30°01' W 031°49'0 0.0 26.9
2014-Aug-23 16:30N 30°01' W 031°49'0 0.0 26.9
2014-Aug-23 16:00N 30°01' W 031°49'0 0.0 26.9
2014-Aug-23 15:45N 30°01' W 031°49'1 0.5 26.8
2014-Aug-23 14:15N 30°02' W 031°49'1 0.3 26.7
2014-Aug-23 12:15N 30°02' W 031°48'1 0.9 26.5
2014-Aug-23 11:30N 30°02' W 031°48'0 0.0 26.4
2014-Aug-23 10:45N 30°02' W 031°48'1 5.0 26.4
2014-Aug-23 10:30N 30°01' W 031°48'0 0.0 26.4
2014-Aug-23 09:00N 30°01' W 031°48'1 1.1 26.4
2014-Aug-23 08:30N 30°01' W 031°48'0 0.0 26.4
2014-Aug-23 08:15N 30°01' W 031°48'0 0.3 26.4
2014-Aug-23 07:15N 30°01' W 031°48'1 4.2 26.4
2014-Aug-23 07:00N 30°01' W 031°46'0 0.0 26.4
2014-Aug-23 06:45N 30°01' W 031°46'0 0.0 26.4
2014-Aug-23 05:15N 30°01' W 031°46'0 0.0 26.4
2014-Aug-23 04:45N 30°01' W 031°46'2 7.8 26.4
2014-Aug-23 04:30N 30°02' W 031°45'0 0.0 26.4
2014-Aug-23 03:00N 30°02' W 031°45'0 0.0 26.4
2014-Aug-23 02:45N 30°02' W 031°45'0 0.0 26.4
2014-Aug-23 00:00N 30°02' W 031°45'0 0.0 26.4
2014-Aug-22 23:45N 30°02' W 031°45'0 0.1 26.4
2014-Aug-22 23:15N 30°02' W 031°45'1 0.8 26.4
2014-Aug-22 22:15N 30°03' W 031°45'1 0.3 26.5
2014-Aug-22 19:30N 30°03' W 031°44'0 0.0 26.6
2014-Aug-22 19:00N 30°03' W 031°44'0 0.5 26.7
2014-Aug-22 18:45N 30°03' W 031°44'0 0.0 26.7
2014-Aug-22 18:30N 30°03' W 031°44'1 0.4 26.7
2014-Aug-22 17:15N 30°02' W 031°44'0 0.0 26.8
2014-Aug-22 16:45N 30°02' W 031°44'1 1.5 26.8
2014-Aug-22 16:15N 30°02' W 031°43'0 0.0 26.8
2014-Aug-22 16:00N 30°02' W 031°43'1 0.7 26.8
2014-Aug-22 14:30N 30°03' W 031°42'1 3.3 26.6
2014-Aug-22 14:15N 30°03' W 031°43'1 0.6 26.5
2014-Aug-22 12:45N 30°03' W 031°42'0 0.5 26.4
2014-Aug-22 12:00N 30°03' W 031°42'1 2.8 26.4
2014-Aug-22 11:45N 30°04' W 031°43'1 1.8 26.3
2014-Aug-22 11:00N 30°03' W 031°42'0 0.0 26.3
2014-Aug-22 10:45N 30°03' W 031°42'0 0.0 26.3
2014-Aug-22 09:00N 30°03' W 031°42'0 0.0 26.3
2014-Aug-22 08:45N 30°03' W 031°42'0 0.4 26.3
2014-Aug-22 07:45N 30°03' W 031°41'0 0.7 26.3
2014-Aug-22 07:15N 30°03' W 031°41'1 2.7 26.3
2014-Aug-22 07:00N 30°02' W 031°40'0 0.1 26.3
2014-Aug-22 06:00N 30°02' W 031°40'1 0.9 26.4
2014-Aug-22 04:45N 30°02' W 031°39'0 0.0 26.4
2014-Aug-22 03:00N 30°02' W 031°39'0 0.0 26.4
2014-Aug-22 00:15N 30°02' W 031°39'1 1.0 26.5
2014-Aug-21 23:30N 30°03' W 031°38'0 0.0 26.5
2014-Aug-21 23:15N 30°03' W 031°38'0 0.0 26.5
2014-Aug-21 22:45N 30°03' W 031°38'1 2.4 26.5
2014-Aug-21 22:30N 30°03' W 031°38'1 0.8 26.5
2014-Aug-21 21:45N 30°03' W 031°38'1 0.6 26.5
2014-Aug-21 20:00N 30°03' W 031°37'0 0.6 26.6
2014-Aug-21 19:30N 30°03' W 031°37'0 0.0 26.6
2014-Aug-21 19:15N 30°03' W 031°37'0 0.1 26.6
2014-Aug-21 18:45N 30°03' W 031°37'0 0.0 26.6
2014-Aug-21 18:30N 30°03' W 031°37'1 0.9 26.7
2014-Aug-21 17:45N 30°04' W 031°36'0 0.4 26.7
2014-Aug-21 17:00N 30°04' W 031°36'0 0.1 26.7
2014-Aug-21 16:15N 30°04' W 031°36'2 1.0 26.6
2014-Aug-21 14:45N 30°05' W 031°35'0 0.0 26.6
2014-Aug-21 14:30N 30°05' W 031°35'0 0.0 26.5
2014-Aug-21 13:00N 30°05' W 031°35'0 0.0 26.4
2014-Aug-21 12:45N 30°05' W 031°35'0 0.8 26.4
2014-Aug-21 12:15N 30°05' W 031°35'1 3.5 26.4
2014-Aug-21 12:00N 30°06' W 031°35'0 0.4 26.4
2014-Aug-21 11:15N 30°06' W 031°35'0 0.0 26.3
2014-Aug-21 08:00N 30°06' W 031°35'0 0.0 26.3
2014-Aug-21 07:45N 30°06' W 031°35'1 1.1 26.3
2014-Aug-21 07:15N 30°06' W 031°35'0 0.1 26.3
2014-Aug-21 06:30N 30°06' W 031°35'0 0.0 26.3
2014-Aug-21 06:15N 30°06' W 031°35'0 0.0 26.3
2014-Aug-21 06:00N 30°06' W 031°35'0 0.0 26.3
2014-Aug-21 05:45N 30°06' W 031°35'0 0.7 26.3
2014-Aug-21 05:30N 30°06' W 031°35'1 0.7 26.3
2014-Aug-21 04:45N 30°06' W 031°34'1 0.5 26.3
2014-Aug-21 03:15N 30°06' W 031°33'0 0.0 26.3
2014-Aug-21 00:30N 30°06' W 031°33'0 0.6 26.4
2014-Aug-20 23:45N 30°07' W 031°33'0 0.4 26.4
2014-Aug-20 23:00N 30°07' W 031°33'0 0.0 26.4
2014-Aug-20 22:45N 30°07' W 031°33'0 0.2 26.4
2014-Aug-20 22:00N 30°07' W 031°33'0 0.0 26.4
2014-Aug-20 20:30N 30°07' W 031°33'1 1.5 26.5
2014-Aug-20 19:45N 30°07' W 031°31'1 4.5 26.5
2014-Aug-20 19:30N 30°07' W 031°33'1 2.3 26.5
2014-Aug-20 19:00N 30°07' W 031°31'1 2.4 26.5
2014-Aug-20 18:45N 30°07' W 031°32'0 0.0 26.6
2014-Aug-20 18:00N 30°07' W 031°32'1 1.4 26.6
2014-Aug-20 17:15N 30°07' W 031°31'1 2.1 26.6
2014-Aug-20 17:00N 30°07' W 031°31'1 1.4 26.6
2014-Aug-20 16:30N 30°07' W 031°31'0 0.0 26.6
2014-Aug-20 16:15N 30°07' W 031°31'0 0.3 26.6
2014-Aug-20 14:45N 30°07' W 031°30'2 0.8 26.6
2014-Aug-20 12:30N 30°09' W 031°29'1 1.5 26.5
2014-Aug-20 11:30N 30°10' W 031°28'0 0.0 26.4
2014-Aug-20 08:30N 30°10' W 031°28'0 0.0 26.5
2014-Aug-20 07:30N 30°10' W 031°28'0 0.0 26.5
2014-Aug-20 07:15N 30°10' W 031°28'0 0.0 26.5
2014-Aug-20 07:00N 30°10' W 031°28'0 1.5 26.5
2014-Aug-20 06:45N 30°10' W 031°28'1 1.3 26.5
2014-Aug-20 05:45N 30°10' W 031°26'0 0.0 26.5
2014-Aug-20 05:15N 30°10' W 031°26'0 0.0 26.6
2014-Aug-20 05:00N 30°10' W 031°26'3 2.1 26.6
2014-Aug-20 03:30N 30°12' W 031°23'0 0.0 26.6
2014-Aug-20 00:15N 30°12' W 031°23'1 0.5 26.6
2014-Aug-19 23:15N 30°12' W 031°23'0 0.1 26.7
2014-Aug-19 22:30N 30°12' W 031°23'3 1.1 26.7
2014-Aug-19 19:30N 30°15' W 031°22'0 0.0 26.8
2014-Aug-19 19:15N 30°15' W 031°22'0 0.0 26.9
2014-Aug-19 19:00N 30°15' W 031°22'0 0.0 26.9
2014-Aug-19 18:30N 30°15' W 031°22'1 1.1 26.9
2014-Aug-19 17:30N 30°16' W 031°22'0 0.0 26.9
2014-Aug-19 17:15N 30°16' W 031°22'1 1.3 26.9
2014-Aug-19 16:45N 30°17' W 031°22'1 0.5 26.9
2014-Aug-19 15:00N 30°18' W 031°22'1 3.4 26.8
2014-Aug-19 14:45N 30°17' W 031°22'1 0.4 26.8
2014-Aug-19 12:45N 30°18' W 031°22'0 0.4 26.6
2014-Aug-19 12:00N 30°18' W 031°22'0 0.0 26.6
2014-Aug-19 11:45N 30°18' W 031°22'0 0.0 26.6
2014-Aug-19 11:15N 30°18' W 031°22'0 0.0 26.6
2014-Aug-19 10:15N 30°18' W 031°22'0 0.2 26.5
2014-Aug-19 09:00N 30°18' W 031°22'0 0.0 26.5
2014-Aug-19 08:45N 30°18' W 031°22'0 0.1 26.5
2014-Aug-19 07:45N 30°18' W 031°22'0 1.9 26.5
2014-Aug-19 07:30N 30°18' W 031°21'0 0.5 26.5
2014-Aug-19 07:15N 30°18' W 031°21'0 0.0 26.5
2014-Aug-19 07:00N 30°18' W 031°21'1 1.4 26.5
2014-Aug-19 06:00N 30°18' W 031°20'0 0.0 26.6
2014-Aug-19 05:45N 30°18' W 031°20'0 0.0 26.6
2014-Aug-19 05:15N 30°18' W 031°20'0 0.0 26.6
2014-Aug-19 03:45N 30°19' W 031°20'2 6.0 26.6
2014-Aug-19 03:30N 30°19' W 031°18'0 0.0 26.6
2014-Aug-18 23:45N 30°19' W 031°18'0 0.0 26.7
2014-Aug-18 23:30N 30°19' W 031°18'2 2.6 26.7
2014-Aug-18 22:45N 30°20' W 031°17'0 0.0 26.7
2014-Aug-18 22:00N 30°20' W 031°17'0 0.0 26.8
2014-Aug-18 21:30N 30°20' W 031°17'1 0.6 26.8
2014-Aug-18 20:30N 30°21' W 031°17'0 0.0 26.8
2014-Aug-18 20:00N 30°21' W 031°17'0 0.0 26.8
2014-Aug-18 19:45N 30°21' W 031°17'1 1.3 26.8
2014-Aug-18 19:00N 30°22' W 031°17'1 4.0 26.9
2014-Aug-18 18:45N 30°21' W 031°17'1 0.8 26.9
2014-Aug-18 17:30N 30°22' W 031°17'1 5.4 26.9
2014-Aug-18 17:15N 30°23' W 031°18'0 0.0 26.9
2014-Aug-18 16:45N 30°23' W 031°18'0 0.0 26.8
2014-Aug-18 15:15N 30°23' W 031°18'0 0.0 26.7
2014-Aug-18 15:00N 30°23' W 031°18'2 1.1 26.7
2014-Aug-18 13:15N 30°24' W 031°19'1 0.7 26.5
2014-Aug-18 12:15N 30°24' W 031°20'2 2.6 26.4
2014-Aug-18 11:30N 30°23' W 031°22'0 0.0 26.4
2014-Aug-18 10:45N 30°23' W 031°22'0 0.0 26.4
2014-Aug-18 10:30N 30°23' W 031°22'0 0.0 26.4
2014-Aug-18 09:15N 30°23' W 031°22'0 0.1 26.4
2014-Aug-18 08:00N 30°23' W 031°22'0 1.3 26.4
2014-Aug-18 07:45N 30°23' W 031°22'1 3.9 26.4
2014-Aug-18 07:30N 30°22' W 031°22'0 0.0 26.4
2014-Aug-18 06:15N 30°22' W 031°22'0 1.1 26.4
2014-Aug-18 06:00N 30°22' W 031°22'   26.4
Track history (hours):
 
Tides and Currents Weather Stations Pressure Air Temp Water Temp Dewpoint Dewpoint Depression Visibility Wind Speed Wind Dir Waves Ship Positions

Drifting buoy 41997

Last reported at 2014-Aug-28 06:00 UTC. Time now 2014-Aug-28 07:26 UTC.
Position N 29°60' W 032°15'.

Water temperature 27.2 ° C

Date/timePositionNaut miles runAvg speedWind from/ knotsBaromVisibWave heightAir tempDewpointWater temp
2014-Aug-28 06:00N 29°60' W 032°15'1 0.7 27.2
2014-Aug-28 05:15N 29°59' W 032°15'0 0.1 27.2
2014-Aug-28 03:45N 29°60' W 032°15'2 8.6 27.2
2014-Aug-28 03:30N 29°58' W 032°14'0 0.0 27.2
2014-Aug-27 23:45N 29°58' W 032°14'1 1.9 27.3
2014-Aug-27 23:00N 29°58' W 032°12'1 1.5 27.3
2014-Aug-27 22:15N 29°59' W 032°12'0 0.0 27.3
2014-Aug-27 22:00N 29°59' W 032°12'1 0.5 27.4
2014-Aug-27 20:15N 29°60' W 032°12'0 0.0 27.6
2014-Aug-27 19:15N 29°60' W 032°12'0 0.0 27.8
2014-Aug-27 18:30N 29°60' W 032°12'0 0.1 27.7
2014-Aug-27 17:30N 29°60' W 032°12'1 1.0 27.6
2014-Aug-27 17:00N 30°00' W 032°12'0 0.0 27.6
2014-Aug-27 16:45N 30°00' W 032°12'1 0.6 27.6
2014-Aug-27 15:15N 29°60' W 032°12'0 0.0 27.3
2014-Aug-27 15:00N 29°60' W 032°12'1 0.5 27.3
2014-Aug-27 12:30N 29°59' W 032°13'1 0.7 26.9
2014-Aug-27 11:45N 29°58' W 032°13'1 1.1 26.8
2014-Aug-27 11:00N 29°58' W 032°12'0 0.0 26.7
2014-Aug-27 10:45N 29°58' W 032°12'0 0.0 26.7
2014-Aug-27 08:00N 29°58' W 032°12'0 0.9 26.5
2014-Aug-27 07:45N 29°58' W 032°12'0 0.0 26.5
2014-Aug-27 07:15N 29°58' W 032°12'0 0.5 26.5
2014-Aug-27 06:15N 29°58' W 032°11'0 1.9 26.5
2014-Aug-27 06:00N 29°58' W 032°11'0 0.1 26.5
2014-Aug-27 05:30N 29°58' W 032°11'0 0.0 26.6
2014-Aug-27 04:00N 29°58' W 032°11'0 1.1 26.6
2014-Aug-27 03:45N 29°58' W 032°11'2 0.5 26.6
2014-Aug-27 00:15N 29°57' W 032°09'0 0.0 26.7
2014-Aug-27 00:00N 29°57' W 032°09'1 1.4 26.7
2014-Aug-26 23:30N 29°57' W 032°08'0 0.6 26.7
2014-Aug-26 23:15N 29°57' W 032°08'1 1.8 26.7
2014-Aug-26 22:30N 29°58' W 032°07'1 0.9 26.7
2014-Aug-26 20:45N 29°59' W 032°05'0 0.0 26.8
2014-Aug-26 19:15N 29°59' W 032°05'1 3.2 27.1
2014-Aug-26 19:00N 29°59' W 032°06'0 0.0 27.1
2014-Aug-26 18:45N 29°59' W 032°06'0 0.0 27.1
2014-Aug-26 17:45N 29°59' W 032°06'0 0.0 27.2
2014-Aug-26 17:30N 29°59' W 032°06'1 0.3 27.2
2014-Aug-26 15:30N 29°60' W 032°06'0 0.0 27.0
2014-Aug-26 15:15N 29°60' W 032°06'0 0.1 27.0
2014-Aug-26 12:45N 29°60' W 032°06'0 0.0 26.5
2014-Aug-26 12:15N 29°60' W 032°06'0 1.1 26.5
2014-Aug-26 12:00N 29°60' W 032°05'1 1.1 26.4
2014-Aug-26 11:15N 29°59' W 032°05'0 0.0 26.4
2014-Aug-26 11:00N 29°59' W 032°05'0 0.0 26.4
2014-Aug-26 08:30N 29°59' W 032°05'1 0.7 26.4
2014-Aug-26 07:45N 29°60' W 032°04'0 1.4 26.4
2014-Aug-26 07:30N 30°00' W 032°04'0 0.0 26.4
2014-Aug-26 07:00N 30°00' W 032°04'0 0.0 26.4
2014-Aug-26 06:45N 30°00' W 032°04'0 1.8 26.4
2014-Aug-26 06:30N 30°00' W 032°04'1 3.3 26.4
2014-Aug-26 06:15N 30°01' W 032°03'0 0.0 26.4
2014-Aug-26 05:45N 30°01' W 032°03'0 0.0 26.4
2014-Aug-26 05:30N 30°01' W 032°03'0 0.2 26.4
2014-Aug-26 04:00N 30°01' W 032°02'0 0.0 26.5
2014-Aug-26 00:30N 30°01' W 032°02'0 0.3 26.6
2014-Aug-25 23:45N 30°01' W 032°02'0 0.0 26.6
2014-Aug-25 23:00N 30°01' W 032°02'1 5.2 26.7
2014-Aug-25 22:45N 30°01' W 032°01'0 0.0 26.7
2014-Aug-25 22:00N 30°01' W 032°01'1 0.3 26.7
2014-Aug-25 19:45N 30°01' W 031°60'0 0.0 26.9
2014-Aug-25 19:30N 30°01' W 031°60'0 0.0 26.9
2014-Aug-25 19:15N 30°01' W 031°60'0 0.0 26.9
2014-Aug-25 18:00N 30°01' W 031°60'0 0.2 26.9
2014-Aug-25 17:45N 30°01' W 031°60'0 0.0 26.9
2014-Aug-25 17:30N 30°01' W 031°60'0 1.4 26.9
2014-Aug-25 17:15N 30°02' W 031°60'0 0.0 26.9
2014-Aug-25 16:15N 30°02' W 031°60'0 0.0 26.9
2014-Aug-25 15:30N 30°02' W 031°60'1 0.4 26.8
2014-Aug-25 12:30N 30°01' W 031°58'2 1.7 26.4
2014-Aug-25 11:30N 29°59' W 031°58'0 0.0 26.4
2014-Aug-25 09:00N 29°59' W 031°58'1 1.2 26.4
2014-Aug-25 08:15N 30°00' W 031°57'0 0.0 26.3
2014-Aug-25 08:00N 30°00' W 031°57'0 0.0 26.4
2014-Aug-25 07:30N 30°00' W 031°57'0 0.0 26.4
2014-Aug-25 07:15N 30°00' W 031°57'1 2.0 26.4
2014-Aug-25 06:30N 30°01' W 031°56'0 0.0 26.4
2014-Aug-25 06:15N 30°01' W 031°56'0 0.3 26.4
2014-Aug-25 06:00N 30°01' W 031°56'0 0.0 26.4
2014-Aug-25 05:45N 30°01' W 031°56'1 0.9 26.4
2014-Aug-25 04:15N 30°01' W 031°54'0 0.0 26.4
2014-Aug-25 04:00N 30°01' W 031°54'0 0.0 26.4
2014-Aug-25 00:45N 30°01' W 031°54'0 0.0 26.5
2014-Aug-25 00:00N 30°01' W 031°54'0 0.0 26.5
2014-Aug-24 23:15N 30°01' W 031°54'0 0.0 26.5
2014-Aug-24 23:00N 30°01' W 031°54'0 0.0 26.5
2014-Aug-24 22:30N 30°01' W 031°54'0 0.0 26.5
2014-Aug-24 21:45N 30°01' W 031°54'0 1.2 26.5
2014-Aug-24 21:30N 30°01' W 031°54'0 0.0 26.5
2014-Aug-24 20:00N 30°01' W 031°54'0 0.0 26.6
2014-Aug-24 19:45N 30°01' W 031°54'0 0.0 26.6
2014-Aug-24 18:15N 30°01' W 031°54'0 0.5 26.7
2014-Aug-24 18:00N 30°01' W 031°54'0 0.3 26.7
2014-Aug-24 16:30N 30°02' W 031°53'0 0.0 26.8
2014-Aug-24 16:15N 30°02' W 031°53'0 0.0 26.8
2014-Aug-24 15:45N 30°02' W 031°53'0 0.0 26.7
2014-Aug-24 15:30N 30°02' W 031°53'0 0.1 26.7
2014-Aug-24 12:45N 30°01' W 031°53'1 1.5 26.6
2014-Aug-24 12:00N 30°00' W 031°53'0 0.0 26.5
2014-Aug-24 11:45N 30°00' W 031°53'0 0.0 26.5
2014-Aug-24 11:00N 30°00' W 031°53'1 0.8 26.5
2014-Aug-24 10:15N 30°00' W 031°52'0 0.2 26.5
2014-Aug-24 08:15N 30°00' W 031°52'0 1.5 26.5
2014-Aug-24 08:00N 30°00' W 031°52'0 0.0 26.5
2014-Aug-24 07:45N 30°00' W 031°52'1 1.1 26.5
2014-Aug-24 06:45N 30°01' W 031°51'0 0.0 26.5
2014-Aug-24 06:30N 30°01' W 031°51'0 0.0 26.5
2014-Aug-24 05:00N 30°01' W 031°51'0 0.2 26.5
2014-Aug-24 04:30N 30°01' W 031°51'1 3.9 26.5
2014-Aug-24 04:15N 30°01' W 031°50'0 0.0 26.5
2014-Aug-24 02:45N 30°01' W 031°50'0 0.0 26.5
2014-Aug-24 02:30N 30°01' W 031°50'0 0.1 26.5
2014-Aug-23 22:45N 30°01' W 031°50'0 0.0 26.6
2014-Aug-23 22:00N 30°01' W 031°50'0 0.5 26.7
2014-Aug-23 21:45N 30°01' W 031°49'0 0.0 26.7
2014-Aug-23 20:45N 30°01' W 031°49'0 0.0 26.8
2014-Aug-23 20:30N 30°01' W 031°49'0 0.0 26.8
2014-Aug-23 20:15N 30°01' W 031°49'0 0.0 26.8
2014-Aug-23 19:00N 30°01' W 031°49'1 1.1 26.8
2014-Aug-23 18:15N 30°01' W 031°49'0 0.0 26.9
2014-Aug-23 16:30N 30°01' W 031°49'0 0.0 26.9
2014-Aug-23 16:00N 30°01' W 031°49'0 0.0 26.9
2014-Aug-23 15:45N 30°01' W 031°49'1 0.5 26.8
2014-Aug-23 14:15N 30°02' W 031°49'1 0.3 26.7
2014-Aug-23 12:15N 30°02' W 031°48'1 0.9 26.5
2014-Aug-23 11:30N 30°02' W 031°48'0 0.0 26.4
2014-Aug-23 10:45N 30°02' W 031°48'1 5.0 26.4
2014-Aug-23 10:30N 30°01' W 031°48'0 0.0 26.4
2014-Aug-23 09:00N 30°01' W 031°48'1 1.1 26.4
2014-Aug-23 08:30N 30°01' W 031°48'0 0.0 26.4
2014-Aug-23 08:15N 30°01' W 031°48'0 0.3 26.4
2014-Aug-23 07:15N 30°01' W 031°48'1 4.2 26.4
2014-Aug-23 07:00N 30°01' W 031°46'0 0.0 26.4
2014-Aug-23 06:45N 30°01' W 031°46'0 0.0 26.4
2014-Aug-23 05:15N 30°01' W 031°46'0 0.0 26.4
2014-Aug-23 04:45N 30°01' W 031°46'2 7.8 26.4
2014-Aug-23 04:30N 30°02' W 031°45'0 0.0 26.4
2014-Aug-23 03:00N 30°02' W 031°45'0 0.0 26.4
2014-Aug-23 02:45N 30°02' W 031°45'0 0.0 26.4
2014-Aug-23 00:00N 30°02' W 031°45'0 0.0 26.4
2014-Aug-22 23:45N 30°02' W 031°45'0 0.1 26.4
2014-Aug-22 23:15N 30°02' W 031°45'1 0.8 26.4
2014-Aug-22 22:15N 30°03' W 031°45'1 0.3 26.5
2014-Aug-22 19:30N 30°03' W 031°44'0 0.0 26.6
2014-Aug-22 19:00N 30°03' W 031°44'0 0.5 26.7
2014-Aug-22 18:45N 30°03' W 031°44'0 0.0 26.7
2014-Aug-22 18:30N 30°03' W 031°44'1 0.4 26.7
2014-Aug-22 17:15N 30°02' W 031°44'0 0.0 26.8
2014-Aug-22 16:45N 30°02' W 031°44'1 1.5 26.8
2014-Aug-22 16:15N 30°02' W 031°43'0 0.0 26.8
2014-Aug-22 16:00N 30°02' W 031°43'1 0.7 26.8
2014-Aug-22 14:30N 30°03' W 031°42'1 3.3 26.6
2014-Aug-22 14:15N 30°03' W 031°43'1 0.6 26.5
2014-Aug-22 12:45N 30°03' W 031°42'0 0.5 26.4
2014-Aug-22 12:00N 30°03' W 031°42'1 2.8 26.4
2014-Aug-22 11:45N 30°04' W 031°43'1 1.8 26.3
2014-Aug-22 11:00N 30°03' W 031°42'0 0.0 26.3
2014-Aug-22 10:45N 30°03' W 031°42'0 0.0 26.3
2014-Aug-22 09:00N 30°03' W 031°42'0 0.0 26.3
2014-Aug-22 08:45N 30°03' W 031°42'0 0.4 26.3
2014-Aug-22 07:45N 30°03' W 031°41'0 0.7 26.3
2014-Aug-22 07:15N 30°03' W 031°41'1 2.7 26.3
2014-Aug-22 07:00N 30°02' W 031°40'0 0.1 26.3
2014-Aug-22 06:00N 30°02' W 031°40'1 0.9 26.4
2014-Aug-22 04:45N 30°02' W 031°39'0 0.0 26.4
2014-Aug-22 03:00N 30°02' W 031°39'0 0.0 26.4
2014-Aug-22 00:15N 30°02' W 031°39'1 1.0 26.5
2014-Aug-21 23:30N 30°03' W 031°38'0 0.0 26.5
2014-Aug-21 23:15N 30°03' W 031°38'0 0.0 26.5
2014-Aug-21 22:45N 30°03' W 031°38'1 2.4 26.5
2014-Aug-21 22:30N 30°03' W 031°38'1 0.8 26.5
2014-Aug-21 21:45N 30°03' W 031°38'1 0.6 26.5
2014-Aug-21 20:00N 30°03' W 031°37'0 0.6 26.6
2014-Aug-21 19:30N 30°03' W 031°37'0 0.0 26.6
2014-Aug-21 19:15N 30°03' W 031°37'0 0.1 26.6
2014-Aug-21 18:45N 30°03' W 031°37'0 0.0 26.6
2014-Aug-21 18:30N 30°03' W 031°37'1 0.9 26.7
2014-Aug-21 17:45N 30°04' W 031°36'0 0.4 26.7
2014-Aug-21 17:00N 30°04' W 031°36'0 0.1 26.7
2014-Aug-21 16:15N 30°04' W 031°36'2 1.0 26.6
2014-Aug-21 14:45N 30°05' W 031°35'0 0.0 26.6
2014-Aug-21 14:30N 30°05' W 031°35'0 0.0 26.5
2014-Aug-21 13:00N 30°05' W 031°35'0 0.0 26.4
2014-Aug-21 12:45N 30°05' W 031°35'0 0.8 26.4
2014-Aug-21 12:15N 30°05' W 031°35'1 3.5 26.4
2014-Aug-21 12:00N 30°06' W 031°35'0 0.4 26.4
2014-Aug-21 11:15N 30°06' W 031°35'0 0.0 26.3
2014-Aug-21 08:00N 30°06' W 031°35'0 0.0 26.3
2014-Aug-21 07:45N 30°06' W 031°35'1 1.1 26.3
2014-Aug-21 07:15N 30°06' W 031°35'0 0.1 26.3
2014-Aug-21 06:30N 30°06' W 031°35'0 0.0 26.3
2014-Aug-21 06:15N 30°06' W 031°35'0 0.0 26.3
2014-Aug-21 06:00N 30°06' W 031°35'0 0.0 26.3
2014-Aug-21 05:45N 30°06' W 031°35'0 0.7 26.3
2014-Aug-21 05:30N 30°06' W 031°35'1 0.7 26.3
2014-Aug-21 04:45N 30°06' W 031°34'1 0.5 26.3
2014-Aug-21 03:15N 30°06' W 031°33'0 0.0 26.3
2014-Aug-21 00:30N 30°06' W 031°33'0 0.6 26.4
2014-Aug-20 23:45N 30°07' W 031°33'0 0.4 26.4
2014-Aug-20 23:00N 30°07' W 031°33'0 0.0 26.4
2014-Aug-20 22:45N 30°07' W 031°33'0 0.2 26.4
2014-Aug-20 22:00N 30°07' W 031°33'0 0.0 26.4
2014-Aug-20 20:30N 30°07' W 031°33'1 1.5 26.5
2014-Aug-20 19:45N 30°07' W 031°31'1 4.5 26.5
2014-Aug-20 19:30N 30°07' W 031°33'1 2.3 26.5
2014-Aug-20 19:00N 30°07' W 031°31'1 2.4 26.5
2014-Aug-20 18:45N 30°07' W 031°32'0 0.0 26.6
2014-Aug-20 18:00N 30°07' W 031°32'1 1.4 26.6
2014-Aug-20 17:15N 30°07' W 031°31'1 2.1 26.6
2014-Aug-20 17:00N 30°07' W 031°31'1 1.4 26.6
2014-Aug-20 16:30N 30°07' W 031°31'0 0.0 26.6
2014-Aug-20 16:15N 30°07' W 031°31'0 0.3 26.6
2014-Aug-20 14:45N 30°07' W 031°30'2 0.8 26.6
2014-Aug-20 12:30N 30°09' W 031°29'1 1.5 26.5
2014-Aug-20 11:30N 30°10' W 031°28'0 0.0 26.4
2014-Aug-20 08:30N 30°10' W 031°28'0 0.0 26.5
2014-Aug-20 07:30N 30°10' W 031°28'0 0.0 26.5
2014-Aug-20 07:15N 30°10' W 031°28'0 0.0 26.5
2014-Aug-20 07:00N 30°10' W 031°28'0 1.5 26.5
2014-Aug-20 06:45N 30°10' W 031°28'1 1.3 26.5
2014-Aug-20 05:45N 30°10' W 031°26'0 0.0 26.5
2014-Aug-20 05:15N 30°10' W 031°26'0 0.0 26.6
2014-Aug-20 05:00N 30°10' W 031°26'3 2.1 26.6
2014-Aug-20 03:30N 30°12' W 031°23'0 0.0 26.6
2014-Aug-20 00:15N 30°12' W 031°23'1 0.5 26.6
2014-Aug-19 23:15N 30°12' W 031°23'0 0.1 26.7
2014-Aug-19 22:30N 30°12' W 031°23'3 1.1 26.7
2014-Aug-19 19:30N 30°15' W 031°22'0 0.0 26.8
2014-Aug-19 19:15N 30°15' W 031°22'0 0.0 26.9
2014-Aug-19 19:00N 30°15' W 031°22'0 0.0 26.9
2014-Aug-19 18:30N 30°15' W 031°22'1 1.1 26.9
2014-Aug-19 17:30N 30°16' W 031°22'0 0.0 26.9
2014-Aug-19 17:15N 30°16' W 031°22'1 1.3 26.9
2014-Aug-19 16:45N 30°17' W 031°22'1 0.5 26.9
2014-Aug-19 15:00N 30°18' W 031°22'1 3.4 26.8
2014-Aug-19 14:45N 30°17' W 031°22'1 0.4 26.8
2014-Aug-19 12:45N 30°18' W 031°22'0 0.4 26.6
2014-Aug-19 12:00N 30°18' W 031°22'0 0.0 26.6
2014-Aug-19 11:45N 30°18' W 031°22'0 0.0 26.6
2014-Aug-19 11:15N 30°18' W 031°22'0 0.0 26.6
2014-Aug-19 10:15N 30°18' W 031°22'0 0.2 26.5
2014-Aug-19 09:00N 30°18' W 031°22'0 0.0 26.5
2014-Aug-19 08:45N 30°18' W 031°22'0 0.1 26.5
2014-Aug-19 07:45N 30°18' W 031°22'0 1.9 26.5
2014-Aug-19 07:30N 30°18' W 031°21'0 0.5 26.5
2014-Aug-19 07:15N 30°18' W 031°21'0 0.0 26.5
2014-Aug-19 07:00N 30°18' W 031°21'1 1.4 26.5
2014-Aug-19 06:00N 30°18' W 031°20'0 0.0 26.6
2014-Aug-19 05:45N 30°18' W 031°20'0 0.0 26.6
2014-Aug-19 05:15N 30°18' W 031°20'0 0.0 26.6
2014-Aug-19 03:45N 30°19' W 031°20'2 6.0 26.6
2014-Aug-19 03:30N 30°19' W 031°18'0 0.0 26.6
2014-Aug-18 23:45N 30°19' W 031°18'0 0.0 26.7
2014-Aug-18 23:30N 30°19' W 031°18'2 2.6 26.7
2014-Aug-18 22:45N 30°20' W 031°17'0 0.0 26.7
2014-Aug-18 22:00N 30°20' W 031°17'0 0.0 26.8
2014-Aug-18 21:30N 30°20' W 031°17'1 0.6 26.8
2014-Aug-18 20:30N 30°21' W 031°17'0 0.0 26.8
2014-Aug-18 20:00N 30°21' W 031°17'0 0.0 26.8
2014-Aug-18 19:45N 30°21' W 031°17'1 1.3 26.8
2014-Aug-18 19:00N 30°22' W 031°17'1 4.0 26.9
2014-Aug-18 18:45N 30°21' W 031°17'1 0.8 26.9
2014-Aug-18 17:30N 30°22' W 031°17'1 5.4 26.9
2014-Aug-18 17:15N 30°23' W 031°18'0 0.0 26.9
2014-Aug-18 16:45N 30°23' W 031°18'0 0.0 26.8
2014-Aug-18 15:15N 30°23' W 031°18'0 0.0 26.7
2014-Aug-18 15:00N 30°23' W 031°18'2 1.1 26.7
2014-Aug-18 13:15N 30°24' W 031°19'1 0.7 26.5
2014-Aug-18 12:15N 30°24' W 031°20'2 2.6 26.4
2014-Aug-18 11:30N 30°23' W 031°22'0 0.0 26.4
2014-Aug-18 10:45N 30°23' W 031°22'0 0.0 26.4
2014-Aug-18 10:30N 30°23' W 031°22'0 0.0 26.4
2014-Aug-18 09:15N 30°23' W 031°22'0 0.1 26.4
2014-Aug-18 08:00N 30°23' W 031°22'0 1.3 26.4
2014-Aug-18 07:45N 30°23' W 031°22'1 3.9 26.4
2014-Aug-18 07:30N 30°22' W 031°22'0 0.0 26.4
2014-Aug-18 06:15N 30°22' W 031°22'0 1.1 26.4
2014-Aug-18 06:00N 30°22' W 031°22'   26.4

Dump ship's entire track history